createdAt,value
2019-05-03T00:02:21.671Z,45.43
2019-05-03T00:04:51.675Z,44.20
2019-05-03T00:07:22.222Z,45.20
2019-05-03T00:09:52.051Z,43.92
2019-05-03T00:12:22.120Z,45.48
2019-05-03T00:17:21.866Z,39.85
2019-05-03T00:19:52.841Z,44.73
2019-05-03T00:22:21.709Z,39.53
2019-05-03T00:25:03.091Z,41.70
2019-05-03T00:27:21.789Z,32.10
2019-05-03T00:29:52.267Z,34.23
2019-05-03T00:32:21.669Z,33.02
2019-05-03T00:34:52.367Z,36.55
2019-05-03T00:37:22.658Z,29.23
2019-05-03T00:39:52.826Z,32.53
2019-05-03T00:42:22.516Z,34.10
2019-05-03T00:44:51.755Z,33.42
2019-05-03T00:47:22.218Z,47.93
2019-05-03T00:49:51.844Z,35.38
2019-05-03T00:52:22.251Z,35.90
2019-05-03T00:54:52.735Z,32.42
2019-05-03T00:57:22.721Z,34.43
2019-05-03T00:59:52.810Z,35.90
2019-05-03T01:04:51.798Z,31.07
2019-05-03T01:07:22.124Z,34.23
2019-05-03T01:09:51.776Z,29.55
2019-05-03T01:12:21.934Z,35.28
2019-05-03T01:14:52.885Z,34.88
2019-05-03T01:17:22.463Z,30.20
2019-05-03T01:19:52.592Z,30.45
2019-05-03T01:22:22.638Z,31.85
2019-05-03T01:24:53.845Z,28.35
2019-05-03T01:27:22.721Z,31.15
2019-05-03T01:29:55.692Z,27.52
2019-05-03T01:32:23.958Z,32.42
2019-05-03T01:34:55.502Z,31.23
2019-05-03T01:37:23.994Z,34.92
2019-05-03T01:39:55.753Z,31.80
2019-05-03T01:42:24.433Z,27.85
2019-05-03T01:44:56.515Z,29.67
2019-05-03T01:47:41.996Z,30.02
2019-05-03T01:50:28.810Z,35.83
2019-05-03T01:52:59.042Z,37.85
2019-05-03T01:55:46.537Z,35.33
2019-05-03T01:58:15.170Z,40.15
2019-05-03T02:00:43.774Z,33.55
2019-05-03T02:03:14.997Z,35.68
2019-05-03T02:05:52.025Z,29.27
2019-05-03T02:08:21.998Z,37.03
2019-05-03T02:10:51.806Z,36.83
2019-05-03T02:13:20.236Z,34.20
2019-05-03T02:15:48.715Z,37.70
2019-05-03T02:18:17.333Z,32.55
2019-05-03T02:20:45.668Z,32.90
2019-05-03T02:23:14.298Z,30.95
2019-05-03T02:25:55.389Z,36.80
2019-05-03T02:28:12.983Z,30.85
2019-05-03T02:30:44.124Z,34.38
2019-05-03T02:33:13.390Z,33.30
2019-05-03T02:38:12.958Z,31.60
2019-05-03T02:40:42.973Z,36.38
2019-05-03T02:43:13.207Z,37.17
2019-05-03T02:45:45.587Z,37.78
2019-05-03T02:48:36.490Z,33.48
2019-05-03T02:51:06.515Z,35.60
2019-05-03T02:53:46.693Z,36.77
2019-05-03T02:56:29.825Z,36.55
2019-05-03T02:58:58.444Z,40.25
2019-05-03T03:01:26.921Z,32.95
2019-05-03T03:03:59.989Z,38.83
2019-05-03T03:06:28.451Z,37.10
2019-05-03T03:09:01.453Z,35.25
2019-05-03T03:11:30.605Z,34.03
2019-05-03T03:14:01.767Z,34.27
2019-05-03T03:16:31.032Z,35.95
2019-05-03T03:19:06.234Z,36.35
2019-05-03T03:21:36.271Z,38.13
2019-05-03T03:24:17.505Z,34.78
2019-05-03T03:26:47.280Z,36.23
2019-05-03T03:32:08.441Z,35.13
2019-05-03T03:34:53.309Z,34.70
2019-05-03T03:37:15.576Z,33.38
2019-05-03T03:39:45.543Z,36.28
2019-05-03T03:42:16.215Z,38.65
2019-05-03T03:44:45.370Z,34.30
2019-05-03T03:47:16.770Z,33.45
2019-05-03T03:49:46.815Z,36.17
2019-05-03T03:52:25.470Z,31.85
2019-05-03T03:54:58.566Z,31.90
2019-05-03T03:57:27.322Z,35.43
2019-05-03T03:59:57.870Z,34.80
2019-05-03T04:02:28.047Z,29.32
2019-05-03T04:04:58.339Z,31.50
2019-05-03T04:07:28.155Z,32.40
2019-05-03T04:09:58.530Z,36.68
2019-05-03T04:12:27.161Z,36.35
2019-05-03T04:14:58.648Z,34.35
2019-05-03T04:17:45.612Z,37.78
2019-05-03T04:20:16.495Z,35.92
2019-05-03T04:22:46.425Z,36.70
2019-05-03T04:25:15.568Z,26.95
2019-05-03T04:27:45.546Z,35.60
2019-05-03T04:30:16.577Z,34.70
2019-05-03T04:33:11.551Z,32.60
2019-05-03T04:35:46.563Z,37.78
2019-05-03T04:38:16.261Z,33.90
2019-05-03T04:40:46.909Z,34.55
2019-05-03T04:43:17.033Z,33.15
2019-05-03T04:45:49.771Z,33.85
2019-05-03T04:48:18.739Z,36.42
2019-05-03T04:50:48.944Z,36.68
2019-05-03T04:53:17.751Z,32.75
2019-05-03T04:55:48.655Z,35.80
2019-05-03T04:58:21.084Z,34.60
2019-05-03T05:00:52.204Z,37.73
2019-05-03T05:03:20.774Z,36.75
2019-05-03T05:05:55.363Z,30.68
2019-05-03T05:08:25.300Z,35.75
2019-05-03T05:10:55.906Z,37.80
2019-05-03T05:13:28.704Z,37.58
2019-05-03T05:15:57.254Z,36.65
2019-05-03T05:18:31.319Z,35.75
2019-05-03T05:21:05.110Z,42.60
2019-05-03T05:23:35.480Z,38.73
2019-05-03T05:26:14.481Z,37.38
2019-05-03T05:28:54.872Z,35.47
2019-05-03T05:31:25.429Z,39.03
2019-05-03T05:33:54.521Z,36.17
2019-05-03T05:36:24.394Z,37.83
2019-05-03T05:38:55.877Z,37.85
2019-05-03T05:41:24.755Z,35.35
2019-05-03T05:43:57.421Z,43.68
2019-05-03T05:46:27.699Z,36.60
2019-05-03T05:48:56.323Z,40.23
2019-05-03T05:51:24.938Z,36.00
2019-05-03T05:53:58.670Z,35.13
2019-05-03T05:56:37.712Z,38.48
2019-05-03T05:59:08.053Z,32.93
2019-05-03T06:01:45.608Z,32.48
2019-05-03T06:04:15.397Z,37.93
2019-05-03T06:06:51.607Z,29.00
2019-05-03T06:09:35.396Z,32.33
2019-05-03T06:12:08.535Z,34.63
2019-05-03T06:14:39.712Z,37.25
2019-05-03T06:17:18.930Z,31.82
2019-05-03T06:19:52.664Z,29.00
2019-05-03T06:22:22.860Z,34.10
2019-05-03T06:24:54.801Z,30.57
2019-05-03T06:27:28.150Z,37.90
2019-05-03T06:29:58.876Z,32.00
2019-05-03T06:32:29.522Z,33.38
2019-05-03T06:34:58.534Z,37.25
2019-05-03T06:37:39.127Z,30.80
2019-05-03T06:40:09.629Z,34.23
2019-05-03T06:42:50.978Z,31.97
2019-05-03T06:45:12.078Z,28.57
2019-05-03T06:47:45.919Z,30.52
2019-05-03T06:50:14.354Z,31.42
2019-05-03T06:52:44.544Z,32.88
2019-05-03T06:55:14.564Z,35.33
2019-05-03T07:00:24.747Z,40.10
2019-05-03T07:02:57.837Z,38.17
2019-05-03T07:05:29.564Z,42.93
2019-05-03T07:08:01.396Z,41.48
2019-05-03T07:10:35.282Z,44.85
2019-05-03T07:13:09.217Z,39.88
2019-05-03T07:15:40.010Z,48.55
2019-05-03T07:18:08.951Z,42.53
2019-05-03T07:20:47.250Z,39.78
2019-05-03T07:23:15.788Z,41.83
2019-05-03T07:25:46.775Z,34.95
2019-05-03T07:28:15.454Z,37.13
2019-05-03T07:30:45.455Z,33.53
2019-05-03T07:33:18.991Z,35.20
2019-05-03T07:35:51.317Z,34.35
2019-05-03T07:38:20.444Z,34.45
2019-05-03T07:40:49.749Z,36.03
2019-05-03T07:43:18.944Z,31.20
2019-05-03T07:45:47.479Z,34.87
2019-05-03T07:48:17.088Z,37.23
2019-05-03T07:50:46.344Z,37.85
2019-05-03T07:53:15.284Z,30.52
2019-05-03T07:55:45.796Z,31.80
2019-05-03T07:58:27.160Z,29.30
2019-05-03T08:01:06.204Z,30.72
2019-05-03T08:03:30.286Z,31.30
2019-05-03T08:06:01.787Z,29.77
2019-05-03T08:08:32.194Z,29.12
2019-05-03T08:11:02.064Z,30.57
2019-05-03T08:13:31.500Z,28.95
2019-05-03T08:16:00.268Z,31.40
2019-05-03T08:18:29.118Z,32.45
2019-05-03T08:20:58.666Z,34.50
2019-05-03T08:23:30.303Z,31.80
2019-05-03T08:25:58.892Z,32.33
2019-05-03T08:28:28.430Z,36.08
2019-05-03T08:31:15.126Z,35.33
2019-05-03T08:33:55.333Z,34.67
2019-05-03T08:36:25.690Z,31.77
2019-05-03T08:38:56.370Z,36.28
2019-05-03T08:41:26.504Z,33.48
2019-05-03T08:43:59.434Z,36.42
2019-05-03T08:46:39.097Z,38.35
2019-05-03T08:49:08.781Z,37.70
2019-05-03T08:51:41.030Z,34.78
2019-05-03T08:54:15.968Z,40.58
2019-05-03T08:56:47.874Z,38.63
2019-05-03T08:59:29.694Z,31.50
2019-05-03T09:01:57.074Z,35.30
2019-05-03T09:04:36.631Z,36.48
2019-05-03T09:06:56.119Z,33.55
2019-05-03T09:09:45.970Z,40.33
2019-05-03T09:12:14.596Z,33.90
2019-05-03T09:14:46.379Z,35.50
2019-05-03T09:17:15.276Z,39.10
2019-05-03T09:19:45.347Z,37.25
2019-05-03T09:25:02.067Z,38.85
2019-05-03T09:27:31.199Z,35.55
2019-05-03T09:30:00.173Z,34.10
2019-05-03T09:32:28.518Z,36.77
2019-05-03T09:34:57.240Z,33.73
2019-05-03T09:37:26.154Z,34.95
2019-05-03T09:39:55.169Z,36.65
2019-05-03T09:42:24.779Z,33.03
2019-05-03T09:44:55.434Z,35.08
2019-05-03T09:47:25.209Z,31.90
2019-05-03T09:49:55.865Z,32.17
2019-05-03T09:52:25.117Z,27.73
2019-05-03T09:54:58.406Z,27.48
2019-05-03T09:57:27.825Z,25.45
2019-05-03T10:00:00.143Z,24.20
2019-05-03T10:02:28.975Z,22.37
2019-05-03T10:04:59.187Z,23.22
2019-05-03T10:07:28.869Z,21.95
2019-05-03T10:09:58.652Z,27.10
2019-05-03T10:12:27.100Z,23.55
2019-05-03T10:14:56.400Z,18.45
2019-05-03T10:17:35.035Z,23.42
2019-05-03T10:20:07.294Z,23.42
2019-05-03T10:22:36.817Z,22.35
2019-05-03T10:25:07.570Z,24.82
2019-05-03T10:27:48.072Z,23.25
2019-05-03T10:30:23.500Z,21.77
2019-05-03T10:33:09.827Z,25.12
2019-05-03T10:35:38.816Z,26.07
2019-05-03T10:38:07.785Z,29.72
2019-05-03T10:40:37.187Z,29.00
2019-05-03T10:43:13.286Z,33.28
2019-05-03T10:45:45.022Z,36.05
2019-05-03T10:48:24.841Z,30.77
2019-05-03T10:50:56.413Z,33.33
2019-05-03T10:53:36.586Z,33.67
2019-05-03T10:56:26.764Z,33.60
2019-05-03T10:58:54.938Z,31.95
2019-05-03T11:01:49.922Z,31.05
2019-05-03T11:04:27.164Z,28.25
2019-05-03T11:06:56.017Z,24.18
2019-05-03T11:09:28.742Z,25.92
2019-05-03T11:12:01.647Z,27.73
2019-05-03T11:14:32.198Z,25.65
2019-05-03T11:17:06.369Z,27.15
2019-05-03T11:19:38.235Z,32.73
2019-05-03T11:22:06.881Z,29.37
2019-05-03T11:24:35.837Z,25.30
2019-05-03T11:27:06.092Z,26.45
2019-05-03T11:29:35.573Z,31.05
2019-05-03T11:32:18.067Z,29.32
2019-05-03T11:35:24.592Z,29.95
2019-05-03T11:37:56.362Z,34.25
2019-05-03T11:40:28.650Z,34.10
2019-05-03T11:43:16.527Z,33.42
2019-05-03T11:45:46.214Z,30.43
2019-05-03T11:48:15.004Z,32.60
2019-05-03T11:50:45.304Z,28.70
2019-05-03T11:53:19.888Z,34.38
2019-05-03T11:55:54.951Z,31.52
2019-05-03T11:58:27.078Z,35.00
2019-05-03T12:01:18.852Z,26.57
2019-05-03T12:03:47.484Z,35.75
2019-05-03T12:06:18.363Z,35.10
2019-05-03T12:08:49.547Z,28.02
2019-05-03T12:11:27.163Z,28.98
2019-05-03T12:14:12.482Z,28.40
2019-05-03T12:19:20.048Z,23.40
2019-05-03T12:21:45.809Z,26.70
2019-05-03T12:24:17.666Z,27.62
2019-05-03T12:26:56.404Z,22.32
2019-05-03T12:29:36.272Z,23.47
2019-05-03T12:32:05.265Z,21.42
2019-05-03T12:34:48.306Z,22.25
2019-05-03T12:37:24.458Z,24.72
2019-05-03T12:40:00.832Z,20.85
2019-05-03T12:42:29.968Z,21.77
2019-05-03T12:45:01.856Z,20.00
2019-05-03T12:47:36.730Z,22.93
2019-05-03T12:50:06.831Z,25.00
2019-05-03T12:55:08.474Z,22.85
2019-05-03T12:57:41.317Z,20.17
2019-05-03T13:00:18.348Z,20.23
2019-05-03T13:02:49.440Z,25.92
2019-05-03T13:05:19.700Z,22.02
2019-05-03T13:08:11.361Z,25.10
2019-05-03T13:10:40.673Z,21.37
2019-05-03T13:13:09.863Z,20.57
2019-05-03T13:15:49.272Z,17.10
2019-05-03T13:18:18.425Z,17.07
2019-05-03T13:20:48.886Z,25.93
2019-05-03T13:23:30.269Z,20.37
2019-05-03T13:26:05.577Z,19.85
2019-05-03T13:28:37.368Z,15.63
2019-05-03T13:31:10.562Z,19.35
2019-05-03T13:33:42.716Z,18.65
2019-05-03T13:36:15.199Z,17.87
2019-05-03T13:38:45.412Z,21.20
2019-05-03T13:41:14.931Z,18.00
2019-05-03T13:43:45.790Z,21.35
2019-05-03T13:46:18.325Z,19.75
2019-05-03T13:48:49.267Z,18.27
2019-05-03T13:51:19.071Z,15.30
2019-05-03T13:53:49.445Z,16.80
2019-05-03T13:56:18.094Z,17.27
2019-05-03T13:58:48.398Z,19.50
2019-05-03T14:01:19.087Z,15.10
2019-05-03T14:03:58.173Z,11.78
2019-05-03T14:06:33.660Z,13.95
2019-05-03T14:09:12.752Z,12.68
2019-05-03T14:11:51.860Z,13.20
2019-05-03T14:14:21.989Z,12.98
2019-05-03T14:17:01.090Z,11.35
2019-05-03T14:19:41.783Z,10.23
2019-05-03T14:22:20.493Z,8.90
2019-05-03T14:25:04.595Z,12.73
2019-05-03T14:27:43.075Z,8.35
2019-05-03T14:30:14.687Z,7.62
2019-05-03T14:32:45.309Z,8.13
2019-05-03T14:35:17.757Z,9.10
2019-05-03T14:37:51.646Z,8.60
2019-05-03T14:40:21.614Z,12.50
2019-05-03T14:42:55.521Z,10.13
2019-05-03T14:45:22.725Z,9.95
2019-05-03T14:47:57.751Z,8.03
2019-05-03T14:50:26.620Z,8.33
2019-05-03T14:53:05.229Z,7.85
2019-05-03T14:55:41.565Z,9.35
2019-05-03T14:58:17.512Z,10.85
2019-05-03T15:00:59.756Z,7.85
2019-05-03T15:03:30.132Z,9.05
2019-05-03T15:05:59.559Z,10.45
2019-05-03T15:08:28.869Z,12.37
2019-05-03T15:10:58.324Z,9.55
2019-05-03T15:13:28.136Z,8.80
2019-05-03T15:15:58.584Z,7.95
2019-05-03T15:18:30.069Z,10.93
2019-05-03T15:21:19.690Z,10.50
2019-05-03T15:23:54.688Z,9.63
2019-05-03T15:26:26.254Z,10.98
2019-05-03T15:28:56.192Z,9.93
2019-05-03T15:31:41.790Z,15.98
2019-05-03T15:34:12.176Z,11.53
2019-05-03T15:36:41.274Z,11.75
2019-05-03T15:39:11.611Z,14.40
2019-05-03T15:41:42.266Z,14.40
2019-05-03T15:44:27.757Z,13.83
2019-05-03T15:47:09.585Z,12.98
2019-05-03T15:49:35.749Z,12.65
2019-05-03T15:52:04.769Z,18.02
2019-05-03T15:54:35.202Z,16.45
2019-05-03T15:57:05.623Z,19.02
2019-05-03T15:59:35.405Z,16.05
2019-05-03T16:02:18.773Z,16.02
2019-05-03T16:04:52.196Z,14.63
2019-05-03T16:07:26.034Z,12.82
2019-05-03T16:09:58.075Z,12.20
2019-05-03T16:12:26.685Z,24.23
2019-05-03T16:14:59.520Z,18.50
2019-05-03T16:17:35.295Z,13.98
2019-05-03T16:20:10.887Z,15.65
2019-05-03T16:22:39.614Z,14.55
2019-05-03T16:25:14.179Z,15.25
2019-05-03T16:28:00.025Z,15.03
2019-05-03T16:30:49.236Z,15.43
2019-05-03T16:33:27.188Z,13.68
2019-05-03T16:35:52.042Z,13.00
2019-05-03T16:38:28.672Z,12.65
2019-05-03T16:40:57.136Z,18.42
2019-05-03T16:43:27.555Z,12.57
2019-05-03T16:46:00.311Z,12.73
2019-05-03T16:48:35.173Z,10.80
2019-05-03T16:51:09.356Z,13.85
2019-05-03T16:53:44.521Z,19.57
2019-05-03T16:56:24.528Z,27.55
2019-05-03T16:58:55.014Z,18.02
2019-05-03T17:01:24.426Z,23.15
2019-05-03T17:04:00.376Z,12.45
2019-05-03T17:06:39.932Z,14.83
2019-05-03T17:09:14.550Z,15.13
2019-05-03T17:11:43.361Z,13.45
2019-05-03T17:14:15.959Z,15.13
2019-05-03T17:16:55.408Z,14.10
2019-05-03T17:19:29.943Z,15.15
2019-05-03T17:22:00.968Z,14.10
2019-05-03T17:24:35.666Z,16.57
2019-05-03T17:27:06.909Z,14.93
2019-05-03T17:29:36.490Z,14.03
2019-05-03T17:32:05.145Z,18.55
2019-05-03T17:34:39.252Z,16.65
2019-05-03T17:37:09.145Z,17.42
2019-05-03T17:39:46.685Z,16.00
2019-05-03T17:42:29.881Z,13.70
2019-05-03T17:44:59.071Z,15.90
2019-05-03T17:47:28.907Z,17.48
2019-05-03T17:50:05.292Z,16.67
2019-05-03T17:52:50.543Z,20.20
2019-05-03T17:55:32.858Z,22.07
2019-05-03T17:58:24.292Z,21.87
2019-05-03T18:00:57.423Z,19.62
2019-05-03T18:03:28.016Z,20.70
2019-05-03T18:06:04.691Z,23.07
2019-05-03T18:08:36.093Z,22.07
2019-05-03T18:11:12.495Z,26.40
2019-05-03T18:13:41.204Z,20.68
2019-05-03T18:16:09.741Z,22.48
2019-05-03T18:18:38.400Z,25.80
2019-05-03T18:21:07.338Z,54.75
2019-05-03T18:23:36.693Z,181.12
2019-05-03T18:26:05.811Z,124.85
2019-05-03T18:28:35.603Z,54.55
2019-05-03T18:33:33.989Z,33.18
2019-05-03T18:36:02.665Z,43.52
2019-05-03T18:38:35.219Z,59.38
2019-05-03T18:41:04.988Z,56.83
2019-05-03T18:43:35.572Z,71.20
2019-05-03T18:46:09.116Z,85.62
2019-05-03T18:48:41.175Z,116.17
2019-05-03T18:51:17.490Z,88.90
2019-05-03T18:53:57.625Z,57.55
2019-05-03T18:56:29.192Z,49.05
2019-05-03T18:59:04.958Z,59.80
2019-05-03T19:01:35.451Z,67.50
2019-05-03T19:04:14.562Z,57.30
2019-05-03T19:06:48.517Z,61.80
2019-05-03T19:09:25.061Z,54.70
2019-05-03T19:11:56.777Z,55.08
2019-05-03T19:14:27.742Z,50.25
2019-05-03T19:17:02.262Z,46.68
2019-05-03T19:19:35.141Z,35.40
2019-05-03T19:22:06.218Z,29.07
2019-05-03T19:24:41.337Z,32.33
2019-05-03T19:27:12.636Z,31.82
2019-05-03T19:29:41.323Z,28.77
2019-05-03T19:32:11.041Z,36.60
2019-05-03T19:34:48.436Z,37.23
2019-05-03T19:37:14.212Z,41.02
2019-05-03T19:39:42.799Z,41.40
2019-05-03T19:42:13.092Z,44.20
2019-05-03T19:44:46.093Z,49.38
2019-05-03T19:47:16.336Z,47.53
2019-05-03T19:49:46.657Z,45.75
2019-05-03T19:52:19.017Z,42.90
2019-05-03T19:55:01.178Z,49.00
2019-05-03T19:57:38.781Z,45.00
2019-05-03T20:00:09.849Z,44.18
2019-05-03T20:02:49.429Z,48.73
2019-05-03T20:05:34.485Z,48.45
2019-05-03T20:08:09.108Z,47.15
2019-05-03T20:10:39.570Z,42.98
2019-05-03T20:13:12.037Z,48.38
2019-05-03T20:15:44.922Z,48.50
2019-05-03T20:18:30.014Z,46.80
2019-05-03T20:20:59.686Z,50.52
2019-05-03T20:23:37.965Z,48.78
2019-05-03T20:26:10.531Z,48.98
2019-05-03T20:28:39.630Z,45.78
2019-05-03T20:31:09.186Z,46.90
2019-05-03T20:33:45.763Z,42.05
2019-05-03T20:36:25.536Z,44.90
2019-05-03T20:39:05.465Z,44.67
2019-05-03T20:41:31.330Z,39.85
2019-05-03T20:44:10.857Z,43.42
2019-05-03T20:46:47.040Z,45.60
2019-05-03T20:49:16.574Z,45.90
2019-05-03T20:51:49.580Z,44.42
2019-05-03T20:54:18.098Z,40.28
2019-05-03T20:56:51.841Z,44.05
2019-05-03T20:59:21.588Z,43.23
2019-05-03T21:01:54.528Z,44.15
2019-05-03T21:04:26.497Z,48.25
2019-05-03T21:06:55.513Z,41.65
2019-05-03T21:09:27.799Z,42.20
2019-05-03T21:11:58.366Z,48.15
2019-05-03T21:14:29.397Z,44.25
2019-05-03T21:17:18.540Z,42.35
2019-05-03T21:19:50.606Z,44.55
2019-05-03T21:22:24.818Z,50.83
2019-05-03T21:24:55.334Z,61.77
2019-05-03T21:27:24.639Z,54.18
2019-05-03T21:29:56.062Z,51.55
2019-05-03T21:32:28.884Z,51.92
2019-05-03T21:34:58.299Z,44.70
2019-05-03T21:37:27.966Z,51.70
2019-05-03T21:39:56.734Z,56.37
2019-05-03T21:42:30.236Z,52.20
2019-05-03T21:44:58.798Z,44.03
2019-05-03T21:47:29.036Z,58.95
2019-05-03T21:49:59.539Z,58.58
2019-05-03T21:52:28.204Z,59.93
2019-05-03T21:54:57.128Z,64.53
2019-05-03T21:57:25.868Z,68.17
2019-05-03T21:59:54.991Z,57.58
2019-05-03T22:02:24.690Z,73.17
2019-05-03T22:05:01.060Z,64.95
2019-05-03T22:07:29.863Z,64.05
2019-05-03T22:10:11.764Z,62.58
2019-05-03T22:12:47.418Z,60.50
2019-05-03T22:15:39.981Z,74.58
2019-05-03T22:18:18.867Z,61.80
2019-05-03T22:21:02.377Z,69.22
2019-05-03T22:23:38.667Z,61.48
2019-05-03T22:26:08.082Z,68.47
2019-05-03T22:28:36.692Z,58.38
2019-05-03T22:31:06.831Z,60.33
2019-05-03T22:33:35.514Z,68.17
2019-05-03T22:36:08.684Z,65.55
2019-05-03T22:38:38.300Z,64.90
2019-05-03T22:41:07.355Z,58.58
2019-05-03T22:43:35.812Z,60.20
2019-05-03T22:46:14.447Z,60.75
2019-05-03T22:48:42.234Z,54.30
2019-05-03T22:51:17.176Z,54.58
2019-05-03T22:53:46.241Z,50.05
2019-05-03T22:56:14.868Z,55.13
2019-05-03T22:58:45.636Z,62.03
2019-05-03T23:01:25.630Z,56.70
2019-05-03T23:03:55.157Z,68.07
2019-05-03T23:06:25.178Z,67.40
2019-05-03T23:08:56.394Z,53.28
2019-05-03T23:11:25.029Z,53.52
2019-05-03T23:14:04.928Z,51.42
2019-05-03T23:16:45.105Z,58.17
2019-05-03T23:19:14.678Z,59.18
2019-05-03T23:22:15.351Z,60.52
2019-05-03T23:24:44.548Z,58.20
2019-05-03T23:27:38.358Z,53.50
2019-05-03T23:30:24.780Z,55.75
2019-05-03T23:32:56.464Z,47.62
2019-05-03T23:35:30.992Z,54.15
2019-05-03T23:38:00.099Z,56.48
2019-05-03T23:40:28.727Z,55.08
2019-05-03T23:43:09.568Z,52.90
2019-05-03T23:45:50.228Z,54.73
2019-05-03T23:48:26.389Z,52.03
2019-05-03T23:50:55.938Z,52.43
2019-05-03T23:53:25.801Z,47.40
2019-05-03T23:56:04.403Z,55.67
2019-05-03T23:58:41.900Z,51.75
